sensor_id;sensor_type;location;lat;lon;timestamp;pressure;altitude;pressure_sealevel;temperature;humidity
29879;BME280;16752;53.364;-1.488;2023-04-06T00:00:11;99931.44;;;15.75;53.02
29879;BME280;16752;53.364;-1.488;2023-04-06T00:03:18;100055.91;;;17.01;52.00
29879;BME280;16752;53.364;-1.488;2023-04-06T00:10:43;99972.69;;;16.50;52.08
29879;BME280;16752;53.364;-1.488;2023-04-06T00:47:55;99921.78;;;16.21;52.58
29879;BME280;16752;53.364;-1.488;2023-04-06T00:51:01;99885.94;;;16.36;51.81
29879;BME280;16752;53.364;-1.488;2023-04-06T00:53:45;99896.72;;;16.43;51.87
29879;BME280;16752;53.364;-1.488;2023-04-06T00:56:39;99930.03;;;16.36;52.83
29879;BME280;16752;53.364;-1.488;2023-04-06T00:59:32;99896.84;;;16.24;53.06
29879;BME280;16752;53.364;-1.488;2023-04-06T01:02:18;99963.44;;;16.37;53.29
29879;BME280;16752;53.364;-1.488;2023-04-06T01:05:11;99945.31;;;17.05;51.17
29879;BME280;16752;53.364;-1.488;2023-04-06T01:08:03;99996.94;;;17.27;51.77
29879;BME280;16752;53.364;-1.488;2023-04-06T01:11:03;99873.84;;;16.34;52.04
29879;BME280;16752;53.364;-1.488;2023-04-06T01:14:08;99910.13;;;16.14;53.26
29879;BME280;16752;53.364;-1.488;2023-04-06T01:16:58;99871.00;;;15.72;53.76
29879;BME280;16752;53.364;-1.488;2023-04-06T01:19:54;99872.91;;;16.25;52.81
29879;BME280;16752;53.364;-1.488;2023-04-06T01:22:38;99875.06;;;16.57;51.52
29879;BME280;16752;53.364;-1.488;2023-04-06T01:25:48;99866.97;;;16.41;52.06
29879;BME280;16752;53.364;-1.488;2023-04-06T01:28:46;99977.03;;;16.42;53.88
29879;BME280;16752;53.364;-1.488;2023-04-06T01:31:30;99879.00;;;16.35;52.49
29879;BME280;16752;53.364;-1.488;2023-04-06T01:34:40;99899.53;;;16.41;53.26
29879;BME280;16752;53.364;-1.488;2023-04-06T01:37:27;99860.97;;;15.76;54.89
29879;BME280;16752;53.364;-1.488;2023-04-06T01:40:13;99951.63;;;17.30;51.78
29879;BME280;16752;53.364;-1.488;2023-04-06T01:43:02;99835.78;;;16.27;52.17
29879;BME280;16752;53.364;-1.488;2023-04-06T01:45:59;99840.25;;;16.79;51.29
29879;BME280;16752;53.364;-1.488;2023-04-06T01:48:59;99877.41;;;16.60;52.38
29879;BME280;16752;53.364;-1.488;2023-04-06T01:52:04;99930.88;;;17.43;51.24
29879;BME280;16752;53.364;-1.488;2023-04-06T01:55:29;99851.47;;;16.99;51.10
29879;BME280;16752;53.364;-1.488;2023-04-06T01:58:58;99928.59;;;17.48;51.26
29879;BME280;16752;53.364;-1.488;2023-04-06T02:02:07;99928.38;;;16.80;53.48
29879;BME280;16752;53.364;-1.488;2023-04-06T02:05:28;99927.38;;;17.17;52.21
29879;BME280;16752;53.364;-1.488;2023-04-06T02:09:19;99836.50;;;16.90;51.16
29879;BME280;16752;53.364;-1.488;2023-04-06T02:12:13;99867.84;;;17.21;51.03
29879;BME280;16752;53.364;-1.488;2023-04-06T02:18:33;99907.47;;;17.13;52.20
29879;BME280;16752;53.364;-1.488;2023-04-06T02:29:00;99887.19;;;17.47;51.42
29879;BME280;16752;53.364;-1.488;2023-04-06T02:31:45;99848.38;;;17.30;51.03
29879;BME280;16752;53.364;-1.488;2023-04-06T02:54:07;99839.13;;;17.34;51.06
29879;BME280;16752;53.364;-1.488;2023-04-06T02:57:17;99772.56;;;16.95;51.04
29879;BME280;16752;53.364;-1.488;2023-04-06T03:14:11;99822.25;;;17.09;51.22
29879;BME280;16752;53.364;-1.488;2023-04-06T03:21:11;99879.06;;;16.61;54.28
29879;BME280;16752;53.364;-1.488;2023-04-06T03:35:54;99841.94;;;17.66;51.28
29879;BME280;16752;53.364;-1.488;2023-04-06T03:42:28;99848.78;;;17.69;50.99
29879;BME280;16752;53.364;-1.488;2023-04-06T03:49:00;99764.19;;;17.07;51.18
29879;BME280;16752;53.364;-1.488;2023-04-06T03:52:08;99751.34;;;16.87;52.02
29879;BME280;16752;53.364;-1.488;2023-04-06T03:55:24;99806.59;;;17.16;52.15
29879;BME280;16752;53.364;-1.488;2023-04-06T03:58:51;99787.44;;;17.22;51.27
29879;BME280;16752;53.364;-1.488;2023-04-06T04:01:40;99796.06;;;17.24;51.50
29879;BME280;16752;53.364;-1.488;2023-04-06T04:04:53;99828.94;;;17.47;51.71
29879;BME280;16752;53.364;-1.488;2023-04-06T04:11:45;99820.41;;;17.61;51.38
29879;BME280;16752;53.364;-1.488;2023-04-06T04:15:00;99789.78;;;17.25;51.41
29879;BME280;16752;53.364;-1.488;2023-04-06T04:18:23;99812.78;;;17.58;51.08
29879;BME280;16752;53.364;-1.488;2023-04-06T04:21:52;99813.78;;;17.57;51.03
29879;BME280;16752;53.364;-1.488;2023-04-06T04:28:44;99725.28;;;16.92;51.04
29879;BME280;16752;53.364;-1.488;2023-04-06T04:35:42;99756.16;;;16.91;52.00
29879;BME280;16752;53.364;-1.488;2023-04-06T04:42:14;99757.69;;;17.28;51.83
29879;BME280;16752;53.364;-1.488;2023-04-06T04:45:51;99740.63;;;17.22;51.46
29879;BME280;16752;53.364;-1.488;2023-04-06T04:49:39;99797.06;;;17.57;51.54
29879;BME280;16752;53.364;-1.488;2023-04-06T04:52:51;99724.50;;;17.07;51.61
29879;BME280;16752;53.364;-1.488;2023-04-06T04:55:55;99767.78;;;17.32;51.93
29879;BME280;16752;53.364;-1.488;2023-04-06T05:02:19;99738.44;;;16.66;53.33
29879;BME280;16752;53.364;-1.488;2023-04-06T05:05:29;99757.25;;;17.06;52.42
29879;BME280;16752;53.364;-1.488;2023-04-06T05:12:46;99787.91;;;17.51;51.66
29879;BME280;16752;53.364;-1.488;2023-04-06T05:16:05;99755.34;;;17.25;51.61
29879;BME280;16752;53.364;-1.488;2023-04-06T05:19:34;99695.47;;;15.39;56.34
29879;BME280;16752;53.364;-1.488;2023-04-06T05:23:11;99717.47;;;16.90;52.46
29879;BME280;16752;53.364;-1.488;2023-04-06T05:25:59;99720.50;;;17.03;51.86
29879;BME280;16752;53.364;-1.488;2023-04-06T05:29:06;99716.63;;;17.16;51.65
29879;BME280;16752;53.364;-1.488;2023-04-06T05:32:03;99763.38;;;17.41;51.58
29879;BME280;16752;53.364;-1.488;2023-04-06T05:35:20;99796.09;;;17.66;51.23
29879;BME280;16752;53.364;-1.488;2023-04-06T05:38:07;99782.50;;;17.61;51.44
29879;BME280;16752;53.364;-1.488;2023-04-06T05:41:12;99781.59;;;17.44;51.62
29879;BME280;16752;53.364;-1.488;2023-04-06T05:43:56;99813.78;;;17.65;51.75
29879;BME280;16752;53.364;-1.488;2023-04-06T05:46:40;99735.84;;;17.26;51.53
29879;BME280;16752;53.364;-1.488;2023-04-06T05:49:24;99742.47;;;17.30;51.37
29879;BME280;16752;53.364;-1.488;2023-04-06T05:52:08;99812.41;;;17.79;51.58
29879;BME280;16752;53.364;-1.488;2023-04-06T05:54:53;99726.50;;;16.18;54.11
29879;BME280;16752;53.364;-1.488;2023-04-06T05:57:38;99821.47;;;17.77;51.89
29879;BME280;16752;53.364;-1.488;2023-04-06T06:00:22;99745.66;;;16.73;53.62
29879;BME280;16752;53.364;-1.488;2023-04-06T06:03:06;99790.38;;;17.53;52.67
29879;BME280;16752;53.364;-1.488;2023-04-06T06:05:52;99753.47;;;17.43;51.95
29879;BME280;16752;53.364;-1.488;2023-04-06T06:08:36;99746.81;;;17.39;51.88
29879;BME280;16752;53.364;-1.488;2023-04-06T06:11:20;99745.19;;;17.46;51.55
29879;BME280;16752;53.364;-1.488;2023-04-06T06:14:04;99784.88;;;17.72;51.32
29879;BME280;16752;53.364;-1.488;2023-04-06T06:16:48;99720.03;;;16.74;53.10
29879;BME280;16752;53.364;-1.488;2023-04-06T06:19:32;99758.28;;;17.56;51.59
29879;BME280;16752;53.364;-1.488;2023-04-06T06:22:16;99722.34;;;17.37;51.46
29879;BME280;16752;53.364;-1.488;2023-04-06T06:25:00;99793.31;;;17.67;51.42
29879;BME280;16752;53.364;-1.488;2023-04-06T06:27:48;99746.84;;;17.47;51.54
29879;BME280;16752;53.364;-1.488;2023-04-06T06:30:32;99786.97;;;17.60;51.49
29879;BME280;16752;53.364;-1.488;2023-04-06T06:33:16;99747.66;;;17.05;51.72
29879;BME280;16752;53.364;-1.488;2023-04-06T06:36:01;99751.06;;;17.24;52.23
29879;BME280;16752;53.364;-1.488;2023-04-06T06:38:45;99749.38;;;17.57;51.25
29879;BME280;16752;53.364;-1.488;2023-04-06T06:41:29;99737.59;;;16.83;52.80
29879;BME280;16752;53.364;-1.488;2023-04-06T06:44:14;99819.41;;;17.62;51.33
29879;BME280;16752;53.364;-1.488;2023-04-06T06:46:58;99781.34;;;16.95;52.32
29879;BME280;16752;53.364;-1.488;2023-04-06T06:49:42;99762.97;;;17.28;51.48
29879;BME280;16752;53.364;-1.488;2023-04-06T06:52:28;99798.63;;;17.41;51.50
29879;BME280;16752;53.364;-1.488;2023-04-06T06:55:12;99758.34;;;17.30;51.08
29879;BME280;16752;53.364;-1.488;2023-04-06T06:57:56;99781.13;;;17.15;51.31
29879;BME280;16752;53.364;-1.488;2023-04-06T07:00:40;99757.38;;;16.97;51.45
29879;BME280;16752;53.364;-1.488;2023-04-06T07:03:25;99770.06;;;17.19;50.52
29879;BME280;16752;53.364;-1.488;2023-04-06T07:06:13;99800.31;;;17.51;50.05
29879;BME280;16752;53.364;-1.488;2023-04-06T07:08:57;99803.13;;;17.15;50.81
29879;BME280;16752;53.364;-1.488;2023-04-06T07:11:41;99769.63;;;16.98;51.13
29879;BME280;16752;53.364;-1.488;2023-04-06T07:14:25;99803.75;;;17.69;49.62
29879;BME280;16752;53.364;-1.488;2023-04-06T07:17:09;99745.97;;;16.96;51.07
29879;BME280;16752;53.364;-1.488;2023-04-06T07:19:54;99799.53;;;16.72;50.80
29879;BME280;16752;53.364;-1.488;2023-04-06T07:22:38;99853.72;;;17.38;50.65
29879;BME280;16752;53.364;-1.488;2023-04-06T07:25:22;99843.91;;;17.04;50.92
29879;BME280;16752;53.364;-1.488;2023-04-06T07:28:07;99864.00;;;17.15;50.19
29879;BME280;16752;53.364;-1.488;2023-04-06T07:30:51;99853.13;;;17.00;50.03
29879;BME280;16752;53.364;-1.488;2023-04-06T07:33:35;99872.44;;;16.93;49.90
29879;BME280;16752;53.364;-1.488;2023-04-06T07:36:20;99788.34;;;16.25;50.06
29879;BME280;16752;53.364;-1.488;2023-04-06T07:39:04;99790.31;;;16.76;48.68
29879;BME280;16752;53.364;-1.488;2023-04-06T07:41:48;99830.13;;;16.75;49.03
29879;BME280;16752;53.364;-1.488;2023-04-06T07:44:31;99879.47;;;16.84;49.09
29879;BME280;16752;53.364;-1.488;2023-04-06T07:47:15;99870.88;;;17.34;47.61
29879;BME280;16752;53.364;-1.488;2023-04-06T07:49:59;99821.97;;;16.50;48.04
29879;BME280;16752;53.364;-1.488;2023-04-06T07:52:47;99861.84;;;16.57;48.31
29879;BME280;16752;53.364;-1.488;2023-04-06T07:55:31;99834.09;;;16.26;48.06
29879;BME280;16752;53.364;-1.488;2023-04-06T07:58:57;99885.53;;;17.46;47.14
29879;BME280;16752;53.364;-1.488;2023-04-06T08:01:41;99791.28;;;17.01;47.07
29879;BME280;16752;53.364;-1.488;2023-04-06T08:04:36;99812.56;;;17.18;46.98
29879;BME280;16752;53.364;-1.488;2023-04-06T08:07:20;99869.22;;;17.85;46.10
29879;BME280;16752;53.364;-1.488;2023-04-06T08:10:05;99821.53;;;17.25;45.39
29879;BME280;16752;53.364;-1.488;2023-04-06T08:13:01;99841.69;;;17.78;45.73
29879;BME280;16752;53.364;-1.488;2023-04-06T08:15:56;99839.31;;;18.00;45.07
29879;BME280;16752;53.364;-1.488;2023-04-06T08:19:11;99887.75;;;17.33;46.85
29879;BME280;16752;53.364;-1.488;2023-04-06T08:29:57;99835.22;;;17.72;45.38
29879;BME280;16752;53.364;-1.488;2023-04-06T08:33:28;99908.44;;;18.90;44.03
29879;BME280;16752;53.364;-1.488;2023-04-06T08:40:21;99833.41;;;18.31;41.82
29879;BME280;16752;53.364;-1.488;2023-04-06T08:43:29;99887.84;;;18.76;42.09
29879;BME280;16752;53.364;-1.488;2023-04-06T08:46:41;99906.38;;;18.51;40.70
29879;BME280;16752;53.364;-1.488;2023-04-06T08:49:56;99812.69;;;18.26;42.83
29879;BME280;16752;53.364;-1.488;2023-04-06T08:53:23;99803.63;;;16.31;43.73
29879;BME280;16752;53.364;-1.488;2023-04-06T08:57:02;99838.06;;;17.53;41.42
29879;BME280;16752;53.364;-1.488;2023-04-06T09:00:11;99914.28;;;17.93;42.07
29879;BME280;16752;53.364;-1.488;2023-04-06T09:03:22;99811.31;;;17.64;40.88
29879;BME280;16752;53.364;-1.488;2023-04-06T09:06:11;99853.53;;;17.65;41.27
29879;BME280;16752;53.364;-1.488;2023-04-06T09:09:16;99845.91;;;17.62;41.01
29879;BME280;16752;53.364;-1.488;2023-04-06T09:22:15;99812.69;;;19.16;38.54
29879;BME280;16752;53.364;-1.488;2023-04-06T09:30:36;99930.00;;;19.36;39.82
29879;BME280;16752;53.364;-1.488;2023-04-06T09:36:57;99870.28;;;18.67;38.01
29879;BME280;16752;53.364;-1.488;2023-04-06T09:40:01;99859.47;;;19.01;39.18
29879;BME280;16752;53.364;-1.488;2023-04-06T09:46:20;99830.81;;;17.89;38.74
29879;BME280;16752;53.364;-1.488;2023-04-06T09:49:07;99908.25;;;19.16;36.77
29879;BME280;16752;53.364;-1.488;2023-04-06T09:52:00;99915.25;;;19.09;37.77
29879;BME280;16752;53.364;-1.488;2023-04-06T09:54:46;99915.09;;;18.36;37.48
29879;BME280;16752;53.364;-1.488;2023-04-06T09:58:18;99875.69;;;19.55;36.63
29879;BME280;16752;53.364;-1.488;2023-04-06T10:01:13;99852.19;;;19.82;34.95
29879;BME280;16752;53.364;-1.488;2023-04-06T10:06:51;99875.38;;;19.33;36.44
29879;BME280;16752;53.364;-1.488;2023-04-06T10:09:37;99851.41;;;19.49;34.92
29879;BME280;16752;53.364;-1.488;2023-04-06T10:12:23;99903.63;;;19.10;34.91
29879;BME280;16752;53.364;-1.488;2023-04-06T10:15:29;99937.06;;;18.12;36.82
29879;BME280;16752;53.364;-1.488;2023-04-06T10:18:38;99889.34;;;18.78;36.68
29879;BME280;16752;53.364;-1.488;2023-04-06T10:21:25;99919.22;;;19.53;36.03
29879;BME280;16752;53.364;-1.488;2023-04-06T10:24:14;99852.69;;;19.14;34.78
29879;BME280;16752;53.364;-1.488;2023-04-06T10:27:06;99894.31;;;19.06;35.77
29879;BME280;16752;53.364;-1.488;2023-04-06T10:29:51;99917.84;;;19.74;34.55
29879;BME280;16752;53.364;-1.488;2023-04-06T10:35:42;99910.50;;;20.15;34.78
29879;BME280;16752;53.364;-1.488;2023-04-06T10:38:38;99862.88;;;20.05;32.73
29879;BME280;16752;53.364;-1.488;2023-04-06T10:41:44;99864.63;;;19.10;34.89
29879;BME280;16752;53.364;-1.488;2023-04-06T10:44:29;99911.25;;;20.32;34.94
29879;BME280;16752;53.364;-1.488;2023-04-06T10:47:19;99911.63;;;20.29;34.05
29879;BME280;16752;53.364;-1.488;2023-04-06T10:50:14;99907.44;;;20.65;33.65
29879;BME280;16752;53.364;-1.488;2023-04-06T10:53:09;99907.38;;;20.11;33.11
29879;BME280;16752;53.364;-1.488;2023-04-06T10:55:57;99867.34;;;20.36;31.89
29879;BME280;16752;53.364;-1.488;2023-04-06T10:58:45;99917.72;;;21.14;32.66
29879;BME280;16752;53.364;-1.488;2023-04-06T11:01:56;99854.13;;;19.25;33.98
29879;BME280;16752;53.364;-1.488;2023-04-06T11:05:02;99923.78;;;20.62;32.74
29879;BME280;16752;53.364;-1.488;2023-04-06T11:11:18;99938.53;;;20.42;32.30
29879;BME280;16752;53.364;-1.488;2023-04-06T11:14:33;99960.63;;;19.87;33.40
29879;BME280;16752;53.364;-1.488;2023-04-06T11:17:36;99936.16;;;20.47;31.75
29879;BME280;16752;53.364;-1.488;2023-04-06T11:20:23;99890.75;;;20.71;32.12
29879;BME280;16752;53.364;-1.488;2023-04-06T11:23:07;99899.72;;;21.16;31.19
29879;BME280;16752;53.364;-1.488;2023-04-06T11:25:52;99943.50;;;21.37;31.36
29879;BME280;16752;53.364;-1.488;2023-04-06T11:28:36;99918.63;;;21.44;30.82
29879;BME280;16752;53.364;-1.488;2023-04-06T11:31:27;99982.91;;;22.52;28.35
29879;BME280;16752;53.364;-1.488;2023-04-06T11:34:13;99968.59;;;22.09;28.57
29879;BME280;16752;53.364;-1.488;2023-04-06T11:37:07;99896.66;;;21.27;28.41
29879;BME280;16752;53.364;-1.488;2023-04-06T11:39:55;99957.13;;;21.19;30.02
29879;BME280;16752;53.364;-1.488;2023-04-06T11:42:53;99946.97;;;20.06;30.19
29879;BME280;16752;53.364;-1.488;2023-04-06T11:46:00;99974.34;;;21.69;28.35
29879;BME280;16752;53.364;-1.488;2023-04-06T11:49:21;99928.75;;;20.65;29.57
29879;BME280;16752;53.364;-1.488;2023-04-06T11:52:32;99907.13;;;22.03;28.68
29879;BME280;16752;53.364;-1.488;2023-04-06T11:55:55;99928.19;;;20.93;30.52
29879;BME280;16752;53.364;-1.488;2023-04-06T11:58:53;99943.25;;;21.46;28.90
29879;BME280;16752;53.364;-1.488;2023-04-06T12:01:47;99913.69;;;21.71;28.31
29879;BME280;16752;53.364;-1.488;2023-04-06T12:04:31;99960.78;;;22.37;27.67
29879;BME280;16752;53.364;-1.488;2023-04-06T12:07:25;99990.50;;;22.34;29.05
29879;BME280;16752;53.364;-1.488;2023-04-06T12:10:12;99990.88;;;22.67;27.72
29879;BME280;16752;53.364;-1.488;2023-04-06T12:19:59;99966.28;;;22.86;28.06
29879;BME280;16752;53.364;-1.488;2023-04-06T12:22:46;99987.47;;;23.09;28.87
29879;BME280;16752;53.364;-1.488;2023-04-06T12:25:30;100032.66;;;23.68;27.69
29879;BME280;16752;53.364;-1.488;2023-04-06T12:28:14;99948.84;;;23.61;27.54
29879;BME280;16752;53.364;-1.488;2023-04-06T12:30:59;99959.94;;;23.37;26.90
29879;BME280;16752;53.364;-1.488;2023-04-06T12:40:01;99985.31;;;22.47;27.36
29879;BME280;16752;53.364;-1.488;2023-04-06T12:43:04;100018.50;;;23.10;27.52
29879;BME280;16752;53.364;-1.488;2023-04-06T12:45:52;99996.03;;;22.69;28.58
29879;BME280;16752;53.364;-1.488;2023-04-06T12:48:39;99960.78;;;22.08;28.00
29879;BME280;16752;53.364;-1.488;2023-04-06T12:51:57;100059.78;;;23.65;27.82
29879;BME280;16752;53.364;-1.488;2023-04-06T12:59:20;100058.59;;;23.32;27.18
29879;BME280;16752;53.364;-1.488;2023-04-06T13:10:26;100076.63;;;24.15;28.46
29879;BME280;16752;53.364;-1.488;2023-04-06T13:13:51;100021.84;;;24.11;26.84
29879;BME280;16752;53.364;-1.488;2023-04-06T13:16:36;99998.44;;;23.92;26.46
29879;BME280;16752;53.364;-1.488;2023-04-06T13:19:32;100035.19;;;23.12;26.52
29879;BME280;16752;53.364;-1.488;2023-04-06T13:22:40;100048.81;;;24.16;26.32
29879;BME280;16752;53.364;-1.488;2023-04-06T13:25:43;100004.56;;;25.29;23.84
29879;BME280;16752;53.364;-1.488;2023-04-06T13:28:52;100072.25;;;26.30;22.55
29879;BME280;16752;53.364;-1.488;2023-04-06T13:32:16;100073.81;;;25.12;24.24
29879;BME280;16752;53.364;-1.488;2023-04-06T13:35:00;99996.06;;;23.26;26.33
29879;BME280;16752;53.364;-1.488;2023-04-06T13:37:51;99989.44;;;23.22;24.84
29879;BME280;16752;53.364;-1.488;2023-04-06T13:40:41;99988.78;;;24.73;25.79
29879;BME280;16752;53.364;-1.488;2023-04-06T13:43:28;100072.44;;;24.75;24.88
29879;BME280;16752;53.364;-1.488;2023-04-06T13:46:32;99999.19;;;25.36;24.21
29879;BME280;16752;53.364;-1.488;2023-04-06T13:49:37;100078.63;;;24.76;24.99
29879;BME280;16752;53.364;-1.488;2023-04-06T13:52:31;100015.28;;;24.20;24.71
29879;BME280;16752;53.364;-1.488;2023-04-06T13:58:49;100012.13;;;22.90;27.12
29879;BME280;16752;53.364;-1.488;2023-04-06T14:01:44;100092.47;;;23.89;26.39
29879;BME280;16752;53.364;-1.488;2023-04-06T14:04:34;100017.69;;;23.10;26.51
29879;BME280;16752;53.364;-1.488;2023-04-06T14:07:38;100064.34;;;23.71;26.50
29879;BME280;16752;53.364;-1.488;2023-04-06T14:10:27;100035.13;;;23.98;25.52
29879;BME280;16752;53.364;-1.488;2023-04-06T14:13:17;100108.84;;;24.63;24.37
29879;BME280;16752;53.364;-1.488;2023-04-06T14:16:09;100021.66;;;25.15;23.47
29879;BME280;16752;53.364;-1.488;2023-04-06T14:18:53;100018.66;;;24.77;23.69
29879;BME280;16752;53.364;-1.488;2023-04-06T14:21:41;100053.41;;;25.05;24.83
29879;BME280;16752;53.364;-1.488;2023-04-06T14:24:30;100063.19;;;25.78;23.84
29879;BME280;16752;53.364;-1.488;2023-04-06T14:27:14;100074.09;;;24.76;25.00
29879;BME280;16752;53.364;-1.488;2023-04-06T14:33:21;100025.22;;;25.48;23.22
29879;BME280;16752;53.364;-1.488;2023-04-06T14:36:05;100107.78;;;25.79;22.72
29879;BME280;16752;53.364;-1.488;2023-04-06T14:39:18;100114.19;;;25.98;23.44
29879;BME280;16752;53.364;-1.488;2023-04-06T14:45:34;100034.44;;;22.68;25.64
29879;BME280;16752;53.364;-1.488;2023-04-06T14:48:22;100080.06;;;23.60;23.42
29879;BME280;16752;53.364;-1.488;2023-04-06T14:51:16;100067.63;;;23.09;24.66
29879;BME280;16752;53.364;-1.488;2023-04-06T14:54:03;100102.44;;;24.01;24.87
29879;BME280;16752;53.364;-1.488;2023-04-06T14:56:56;100033.81;;;21.31;26.09
29879;BME280;16752;53.364;-1.488;2023-04-06T14:59:43;100063.81;;;22.53;26.04
29879;BME280;16752;53.364;-1.488;2023-04-06T15:02:31;100084.34;;;21.48;27.14
29879;BME280;16752;53.364;-1.488;2023-04-06T15:05:23;100099.50;;;21.47;26.70
29879;BME280;16752;53.364;-1.488;2023-04-06T15:08:07;100046.31;;;21.54;26.51
29879;BME280;16752;53.364;-1.488;2023-04-06T15:10:53;100094.38;;;21.83;26.80
29879;BME280;16752;53.364;-1.488;2023-04-06T15:13:53;100039.09;;;19.67;28.10
29879;BME280;16752;53.364;-1.488;2023-04-06T15:17:03;100081.59;;;21.56;26.31
29879;BME280;16752;53.364;-1.488;2023-04-06T15:19:48;100088.59;;;22.32;26.08
29879;BME280;16752;53.364;-1.488;2023-04-06T15:22:34;100044.47;;;21.92;26.42
29879;BME280;16752;53.364;-1.488;2023-04-06T15:25:21;100125.78;;;22.63;25.33
29879;BME280;16752;53.364;-1.488;2023-04-06T15:28:05;100130.25;;;23.22;23.85
29879;BME280;16752;53.364;-1.488;2023-04-06T15:30:53;100075.31;;;22.53;24.79
29879;BME280;16752;53.364;-1.488;2023-04-06T15:33:37;100098.84;;;21.14;26.30
29879;BME280;16752;53.364;-1.488;2023-04-06T15:36:25;100156.97;;;21.73;26.01
29879;BME280;16752;53.364;-1.488;2023-04-06T15:39:13;100138.34;;;21.64;26.25
29879;BME280;16752;53.364;-1.488;2023-04-06T15:42:27;100046.50;;;20.67;26.60
29879;BME280;16752;53.364;-1.488;2023-04-06T15:45:10;100116.53;;;21.38;26.45
29879;BME280;16752;53.364;-1.488;2023-04-06T15:47:55;100076.34;;;21.71;25.30
29879;BME280;16752;53.364;-1.488;2023-04-06T15:50:38;100111.78;;;22.76;25.10
29879;BME280;16752;53.364;-1.488;2023-04-06T15:53:29;100066.84;;;22.79;24.31
29879;BME280;16752;53.364;-1.488;2023-04-06T15:56:13;100135.31;;;24.79;22.52
29879;BME280;16752;53.364;-1.488;2023-04-06T16:02:02;100103.75;;;24.33;22.72
29879;BME280;16752;53.364;-1.488;2023-04-06T16:04:46;100102.53;;;23.23;23.72
29879;BME280;16752;53.364;-1.488;2023-04-06T16:07:30;100118.69;;;22.55;24.47
29879;BME280;16752;53.364;-1.488;2023-04-06T16:10:15;100102.41;;;22.50;24.29
29879;BME280;16752;53.364;-1.488;2023-04-06T16:13:00;100166.47;;;21.67;26.67
29879;BME280;16752;53.364;-1.488;2023-04-06T16:15:55;100099.50;;;20.85;26.12
29879;BME280;16752;53.364;-1.488;2023-04-06T16:18:45;100126.44;;;20.27;27.23
29879;BME280;16752;53.364;-1.488;2023-04-06T16:33:13;100131.09;;;19.68;29.58
29879;BME280;16752;53.364;-1.488;2023-04-06T16:35:59;100101.16;;;19.33;28.54
29879;BME280;16752;53.364;-1.488;2023-04-06T17:04:22;100171.47;;;18.53;31.00
29879;BME280;16752;53.364;-1.488;2023-04-06T17:07:06;100276.25;;;19.27;30.65
29879;BME280;16752;53.364;-1.488;2023-04-06T17:09:52;100180.09;;;18.55;31.81
29879;BME280;16752;53.364;-1.488;2023-04-06T17:12:36;100230.19;;;18.32;34.00
29879;BME280;16752;53.364;-1.488;2023-04-06T17:15:20;100291.38;;;18.56;36.18
29879;BME280;16752;53.364;-1.488;2023-04-06T17:18:10;100187.44;;;17.46;39.24
29879;BME280;16752;53.364;-1.488;2023-04-06T17:20:55;100201.50;;;17.74;37.38
29879;BME280;16752;53.364;-1.488;2023-04-06T17:23:39;100241.63;;;16.97;41.43
29879;BME280;16752;53.364;-1.488;2023-04-06T17:26:24;100224.75;;;17.53;40.28
29879;BME280;16752;53.364;-1.488;2023-04-06T17:29:15;100158.22;;;17.10;38.63
29879;BME280;16752;53.364;-1.488;2023-04-06T17:31:59;100222.69;;;18.27;38.22
29879;BME280;16752;53.364;-1.488;2023-04-06T17:34:53;100282.38;;;17.14;39.42
29879;BME280;16752;53.364;-1.488;2023-04-06T17:37:38;100201.84;;;17.61;36.93
29879;BME280;16752;53.364;-1.488;2023-04-06T17:40:34;100291.19;;;18.32;35.01
29879;BME280;16752;53.364;-1.488;2023-04-06T17:43:21;100237.38;;;17.14;38.31
29879;BME280;16752;53.364;-1.488;2023-04-06T17:46:08;100219.94;;;17.66;35.56
29879;BME280;16752;53.364;-1.488;2023-04-06T17:49:15;100233.81;;;17.78;36.51
29879;BME280;16752;53.364;-1.488;2023-04-06T17:52:02;100246.72;;;18.08;34.06
29879;BME280;16752;53.364;-1.488;2023-04-06T17:58:28;100207.25;;;17.87;35.09
29879;BME280;16752;53.364;-1.488;2023-04-06T18:01:13;100320.75;;;17.92;35.11
29879;BME280;16752;53.364;-1.488;2023-04-06T18:03:57;100237.56;;;17.30;35.18
29879;BME280;16752;53.364;-1.488;2023-04-06T18:07:19;100235.09;;;17.46;36.19
29879;BME280;16752;53.364;-1.488;2023-04-06T18:10:13;100295.25;;;17.91;36.08
29879;BME280;16752;53.364;-1.488;2023-04-06T18:13:01;100196.56;;;16.79;35.59
29879;BME280;16752;53.364;-1.488;2023-04-06T18:15:45;100202.56;;;16.62;35.82
29879;BME280;16752;53.364;-1.488;2023-04-06T18:18:38;100299.56;;;17.37;35.74
29879;BME280;16752;53.364;-1.488;2023-04-06T18:21:22;100233.03;;;17.13;34.54
29879;BME280;16752;53.364;-1.488;2023-04-06T18:24:34;100328.63;;;17.84;34.83
29879;BME280;16752;53.364;-1.488;2023-04-06T18:27:33;100276.06;;;16.58;36.92
29879;BME280;16752;53.364;-1.488;2023-04-06T18:30:42;100204.97;;;16.26;36.20
29879;BME280;16752;53.364;-1.488;2023-04-06T18:44:49;100258.81;;;16.44;36.16
29879;BME280;16752;53.364;-1.488;2023-04-06T18:47:33;100339.81;;;16.94;36.21
29879;BME280;16752;53.364;-1.488;2023-04-06T18:50:17;100280.47;;;16.87;35.42
29879;BME280;16752;53.364;-1.488;2023-04-06T18:53:02;100258.00;;;16.34;35.42
29879;BME280;16752;53.364;-1.488;2023-04-06T18:55:48;100219.47;;;15.83;37.44
29879;BME280;16752;53.364;-1.488;2023-04-06T18:58:32;100366.00;;;16.87;35.99
29879;BME280;16752;53.364;-1.488;2023-04-06T19:01:24;100377.00;;;16.83;35.89
29879;BME280;16752;53.364;-1.488;2023-04-06T19:04:08;100327.03;;;16.50;35.95
29879;BME280;16752;53.364;-1.488;2023-04-06T19:07:00;100296.38;;;16.00;36.94
29879;BME280;16752;53.364;-1.488;2023-04-06T19:10:07;100366.38;;;16.34;36.87
29879;BME280;16752;53.364;-1.488;2023-04-06T19:12:51;100312.19;;;15.80;37.65
29879;BME280;16752;53.364;-1.488;2023-04-06T19:15:41;100340.13;;;15.52;37.68
29879;BME280;16752;53.364;-1.488;2023-04-06T19:18:26;100348.38;;;15.99;37.30
29879;BME280;16752;53.364;-1.488;2023-04-06T19:24:01;100281.91;;;15.44;38.00
29879;BME280;16752;53.364;-1.488;2023-04-06T19:26:59;100280.13;;;15.54;38.01
29879;BME280;16752;53.364;-1.488;2023-04-06T19:29:48;100340.22;;;15.62;37.76
29879;BME280;16752;53.364;-1.488;2023-04-06T19:32:54;100298.75;;;15.22;38.15